sensor_id;sensor_type;location;lat;lon;timestamp;P1;durP1;ratioP1;P2;durP2;ratioP2
4272;SDS011;63887;53.656;9.810;2022-10-19T00:00:13;20.83;;;7.40;;
4272;SDS011;63887;53.656;9.810;2022-10-19T00:02:40;9.93;;;7.80;;
4272;SDS011;63887;53.656;9.810;2022-10-19T00:05:07;7.37;;;6.83;;
4272;SDS011;63887;53.656;9.810;2022-10-19T00:07:33;13.50;;;7.40;;
4272;SDS011;63887;53.656;9.810;2022-10-19T00:10:01;8.60;;;7.90;;
4272;SDS011;63887;53.656;9.810;2022-10-19T00:12:29;11.53;;;7.90;;
4272;SDS011;63887;53.656;9.810;2022-10-19T00:14:55;8.67;;;7.63;;
4272;SDS011;63887;53.656;9.810;2022-10-19T00:17:22;13.43;;;7.30;;
4272;SDS011;63887;53.656;9.810;2022-10-19T00:19:48;12.57;;;7.90;;
4272;SDS011;63887;53.656;9.810;2022-10-19T00:22:15;10.53;;;7.40;;
4272;SDS011;63887;53.656;9.810;2022-10-19T00:24:41;12.83;;;7.53;;
4272;SDS011;63887;53.656;9.810;2022-10-19T00:27:09;7.97;;;7.17;;
4272;SDS011;63887;53.656;9.810;2022-10-19T00:29:35;20.00;;;6.90;;
4272;SDS011;63887;53.656;9.810;2022-10-19T00:32:02;11.80;;;7.90;;
4272;SDS011;63887;53.656;9.810;2022-10-19T00:34:29;10.93;;;7.40;;
4272;SDS011;63887;53.656;9.810;2022-10-19T00:36:55;12.53;;;7.37;;
4272;SDS011;63887;53.656;9.810;2022-10-19T00:39:22;10.23;;;7.83;;
4272;SDS011;63887;53.656;9.810;2022-10-19T00:41:48;7.83;;;7.33;;
4272;SDS011;63887;53.656;9.810;2022-10-19T00:47:21;8.13;;;7.40;;
4272;SDS011;63887;53.656;9.810;2022-10-19T00:49:48;7.03;;;6.73;;
4272;SDS011;63887;53.656;9.810;2022-10-19T00:52:16;7.87;;;7.37;;
4272;SDS011;63887;53.656;9.810;2022-10-19T00:54:46;8.63;;;7.03;;
4272;SDS011;63887;53.656;9.810;2022-10-19T00:57:15;9.17;;;6.80;;
4272;SDS011;63887;53.656;9.810;2022-10-19T00:59:42;8.87;;;7.47;;
4272;SDS011;63887;53.656;9.810;2022-10-19T01:02:10;13.40;;;6.87;;
4272;SDS011;63887;53.656;9.810;2022-10-19T01:04:39;13.53;;;7.00;;
4272;SDS011;63887;53.656;9.810;2022-10-19T01:07:09;10.60;;;6.60;;
4272;SDS011;63887;53.656;9.810;2022-10-19T01:09:36;8.83;;;7.10;;
4272;SDS011;63887;53.656;9.810;2022-10-19T01:12:04;12.43;;;7.50;;
4272;SDS011;63887;53.656;9.810;2022-10-19T01:14:37;11.83;;;7.40;;
4272;SDS011;63887;53.656;9.810;2022-10-19T01:17:14;14.23;;;8.80;;
4272;SDS011;63887;53.656;9.810;2022-10-19T01:20:04;10.90;;;6.60;;
4272;SDS011;63887;53.656;9.810;2022-10-19T01:22:50;7.00;;;6.30;;
4272;SDS011;63887;53.656;9.810;2022-10-19T01:25:28;7.33;;;6.63;;
4272;SDS011;63887;53.656;9.810;2022-10-19T01:28:09;7.87;;;7.20;;
4272;SDS011;63887;53.656;9.810;2022-10-19T01:30:50;12.53;;;6.70;;
4272;SDS011;63887;53.656;9.810;2022-10-19T01:33:30;7.17;;;6.80;;
4272;SDS011;63887;53.656;9.810;2022-10-19T01:36:08;13.13;;;7.77;;
4272;SDS011;63887;53.656;9.810;2022-10-19T01:38:49;12.80;;;6.93;;
4272;SDS011;63887;53.656;9.810;2022-10-19T01:41:19;10.90;;;7.47;;
4272;SDS011;63887;53.656;9.810;2022-10-19T01:43:54;20.23;;;7.40;;
4272;SDS011;63887;53.656;9.810;2022-10-19T01:46:27;7.13;;;6.70;;
4272;SDS011;63887;53.656;9.810;2022-10-19T01:49:00;8.77;;;7.60;;
4272;SDS011;63887;53.656;9.810;2022-10-19T01:51:32;10.90;;;7.40;;
4272;SDS011;63887;53.656;9.810;2022-10-19T01:54:03;11.53;;;7.40;;
4272;SDS011;63887;53.656;9.810;2022-10-19T01:56:34;20.33;;;7.63;;
4272;SDS011;63887;53.656;9.810;2022-10-19T01:59:03;12.53;;;7.80;;
4272;SDS011;63887;53.656;9.810;2022-10-19T02:01:34;10.40;;;7.50;;
4272;SDS011;63887;53.656;9.810;2022-10-19T02:04:03;10.53;;;7.50;;
4272;SDS011;63887;53.656;9.810;2022-10-19T02:06:30;8.70;;;7.73;;
4272;SDS011;63887;53.656;9.810;2022-10-19T02:08:57;8.17;;;7.17;;
4272;SDS011;63887;53.656;9.810;2022-10-19T02:11:23;7.97;;;7.20;;
4272;SDS011;63887;53.656;9.810;2022-10-19T02:13:51;28.40;;;7.90;;
4272;SDS011;63887;53.656;9.810;2022-10-19T02:16:22;11.70;;;8.17;;
4272;SDS011;63887;53.656;9.810;2022-10-19T02:18:54;7.40;;;6.70;;
4272;SDS011;63887;53.656;9.810;2022-10-19T02:21:22;22.00;;;7.47;;
4272;SDS011;63887;53.656;9.810;2022-10-19T02:23:49;12.20;;;7.70;;
4272;SDS011;63887;53.656;9.810;2022-10-19T02:26:15;20.10;;;7.17;;
4272;SDS011;63887;53.656;9.810;2022-10-19T02:28:42;17.00;;;8.07;;
4272;SDS011;63887;53.656;9.810;2022-10-19T02:31:08;13.43;;;7.17;;
4272;SDS011;63887;53.656;9.810;2022-10-19T02:33:35;7.60;;;6.90;;
4272;SDS011;63887;53.656;9.810;2022-10-19T02:36:03;23.23;;;7.40;;
4272;SDS011;63887;53.656;9.810;2022-10-19T02:38:30;12.93;;;7.20;;
4272;SDS011;63887;53.656;9.810;2022-10-19T02:40:59;7.60;;;7.17;;
4272;SDS011;63887;53.656;9.810;2022-10-19T02:43:31;7.90;;;7.40;;
4272;SDS011;63887;53.656;9.810;2022-10-19T02:46:02;8.33;;;7.60;;
4272;SDS011;63887;53.656;9.810;2022-10-19T02:48:32;7.67;;;6.97;;
4272;SDS011;63887;53.656;9.810;2022-10-19T02:51:00;17.20;;;8.17;;
4272;SDS011;63887;53.656;9.810;2022-10-19T02:53:28;12.90;;;7.27;;
4272;SDS011;63887;53.656;9.810;2022-10-19T02:55:54;10.80;;;8.17;;
4272;SDS011;63887;53.656;9.810;2022-10-19T02:58:21;14.20;;;7.47;;
4272;SDS011;63887;53.656;9.810;2022-10-19T03:00:47;15.10;;;7.73;;
4272;SDS011;63887;53.656;9.810;2022-10-19T03:03:14;13.10;;;8.87;;
4272;SDS011;63887;53.656;9.810;2022-10-19T03:05:40;8.47;;;7.40;;
4272;SDS011;63887;53.656;9.810;2022-10-19T03:08:07;8.70;;;8.00;;
4272;SDS011;63887;53.656;9.810;2022-10-19T03:10:34;12.80;;;9.33;;
4272;SDS011;63887;53.656;9.810;2022-10-19T03:13:01;10.87;;;9.93;;
4272;SDS011;63887;53.656;9.810;2022-10-19T03:15:28;11.50;;;8.00;;
4272;SDS011;63887;53.656;9.810;2022-10-19T03:17:55;21.23;;;8.57;;
4272;SDS011;63887;53.656;9.810;2022-10-19T03:20:21;11.87;;;8.20;;
4272;SDS011;63887;53.656;9.810;2022-10-19T03:22:48;8.23;;;7.40;;
4272;SDS011;63887;53.656;9.810;2022-10-19T03:25:15;9.07;;;8.10;;
4272;SDS011;63887;53.656;9.810;2022-10-19T03:27:43;12.83;;;8.30;;
4272;SDS011;63887;53.656;9.810;2022-10-19T03:30:09;18.63;;;8.20;;
4272;SDS011;63887;53.656;9.810;2022-10-19T03:32:36;16.00;;;7.67;;
4272;SDS011;63887;53.656;9.810;2022-10-19T03:35:02;14.37;;;8.10;;
4272;SDS011;63887;53.656;9.810;2022-10-19T03:37:29;11.93;;;8.23;;
4272;SDS011;63887;53.656;9.810;2022-10-19T03:39:56;10.13;;;7.97;;
4272;SDS011;63887;53.656;9.810;2022-10-19T03:42:22;13.93;;;8.27;;
4272;SDS011;63887;53.656;9.810;2022-10-19T03:44:50;17.30;;;8.20;;
4272;SDS011;63887;53.656;9.810;2022-10-19T03:47:17;11.20;;;9.33;;
4272;SDS011;63887;53.656;9.810;2022-10-19T03:49:43;9.17;;;8.30;;
4272;SDS011;63887;53.656;9.810;2022-10-19T03:52:09;21.67;;;8.60;;
4272;SDS011;63887;53.656;9.810;2022-10-19T03:54:36;10.43;;;8.47;;
4272;SDS011;63887;53.656;9.810;2022-10-19T03:57:02;13.73;;;7.70;;
4272;SDS011;63887;53.656;9.810;2022-10-19T03:59:29;12.57;;;7.73;;
4272;SDS011;63887;53.656;9.810;2022-10-19T04:01:57;9.83;;;8.97;;
4272;SDS011;63887;53.656;9.810;2022-10-19T04:04:23;9.50;;;8.77;;
4272;SDS011;63887;53.656;9.810;2022-10-19T04:06:49;8.93;;;8.40;;
4272;SDS011;63887;53.656;9.810;2022-10-19T04:09:18;12.60;;;8.20;;
4272;SDS011;63887;53.656;9.810;2022-10-19T04:11:46;14.03;;;8.90;;
4272;SDS011;63887;53.656;9.810;2022-10-19T04:14:14;14.43;;;8.13;;
4272;SDS011;63887;53.656;9.810;2022-10-19T04:16:41;9.80;;;8.90;;
4272;SDS011;63887;53.656;9.810;2022-10-19T04:19:09;9.73;;;8.73;;
4272;SDS011;63887;53.656;9.810;2022-10-19T04:21:39;9.70;;;9.00;;
4272;SDS011;63887;53.656;9.810;2022-10-19T04:24:08;9.77;;;8.90;;
4272;SDS011;63887;53.656;9.810;2022-10-19T04:26:37;9.80;;;8.40;;
4272;SDS011;63887;53.656;9.810;2022-10-19T04:29:05;15.20;;;8.73;;
4272;SDS011;63887;53.656;9.810;2022-10-19T04:31:31;22.80;;;8.90;;
4272;SDS011;63887;53.656;9.810;2022-10-19T04:33:58;14.83;;;9.00;;
4272;SDS011;63887;53.656;9.810;2022-10-19T04:36:26;14.80;;;8.90;;
4272;SDS011;63887;53.656;9.810;2022-10-19T04:38:52;32.00;;;9.20;;
4272;SDS011;63887;53.656;9.810;2022-10-19T04:41:19;13.13;;;8.00;;
4272;SDS011;63887;53.656;9.810;2022-10-19T04:43:47;13.90;;;7.63;;
4272;SDS011;63887;53.656;9.810;2022-10-19T04:46:15;9.70;;;8.53;;
4272;SDS011;63887;53.656;9.810;2022-10-19T04:48:44;11.90;;;8.70;;
4272;SDS011;63887;53.656;9.810;2022-10-19T04:51:11;12.83;;;8.60;;
4272;SDS011;63887;53.656;9.810;2022-10-19T04:53:40;10.60;;;8.60;;
4272;SDS011;63887;53.656;9.810;2022-10-19T04:56:08;8.50;;;7.80;;
4272;SDS011;63887;53.656;9.810;2022-10-19T04:58:36;9.63;;;8.27;;
4272;SDS011;63887;53.656;9.810;2022-10-19T05:01:07;11.20;;;8.03;;
4272;SDS011;63887;53.656;9.810;2022-10-19T05:03:34;9.70;;;8.70;;
4272;SDS011;63887;53.656;9.810;2022-10-19T05:06:00;13.10;;;8.37;;
4272;SDS011;63887;53.656;9.810;2022-10-19T05:08:27;9.13;;;8.30;;
4272;SDS011;63887;53.656;9.810;2022-10-19T05:10:58;18.20;;;9.13;;
4272;SDS011;63887;53.656;9.810;2022-10-19T05:13:26;11.70;;;8.50;;
4272;SDS011;63887;53.656;9.810;2022-10-19T05:15:55;12.23;;;9.10;;
4272;SDS011;63887;53.656;9.810;2022-10-19T05:18:22;20.03;;;10.17;;
4272;SDS011;63887;53.656;9.810;2022-10-19T05:20:49;12.50;;;8.97;;
4272;SDS011;63887;53.656;9.810;2022-10-19T05:23:15;9.57;;;8.77;;
4272;SDS011;63887;53.656;9.810;2022-10-19T05:25:42;9.30;;;8.70;;
4272;SDS011;63887;53.656;9.810;2022-10-19T05:28:10;9.27;;;8.43;;
4272;SDS011;63887;53.656;9.810;2022-10-19T05:30:36;9.60;;;8.93;;
4272;SDS011;63887;53.656;9.810;2022-10-19T05:33:03;12.53;;;9.73;;
4272;SDS011;63887;53.656;9.810;2022-10-19T05:35:30;17.33;;;8.90;;
4272;SDS011;63887;53.656;9.810;2022-10-19T05:37:56;20.63;;;9.20;;
4272;SDS011;63887;53.656;9.810;2022-10-19T05:40:22;11.87;;;9.50;;
4272;SDS011;63887;53.656;9.810;2022-10-19T05:42:49;9.00;;;8.37;;
4272;SDS011;63887;53.656;9.810;2022-10-19T05:45:17;10.07;;;9.07;;
4272;SDS011;63887;53.656;9.810;2022-10-19T05:47:43;10.23;;;9.50;;
4272;SDS011;63887;53.656;9.810;2022-10-19T05:50:09;22.47;;;9.80;;
4272;SDS011;63887;53.656;9.810;2022-10-19T05:52:36;12.93;;;8.70;;
4272;SDS011;63887;53.656;9.810;2022-10-19T05:55:02;20.53;;;9.27;;
4272;SDS011;63887;53.656;9.810;2022-10-19T05:57:30;19.23;;;10.23;;
4272;SDS011;63887;53.656;9.810;2022-10-19T05:59:56;18.87;;;10.07;;
4272;SDS011;63887;53.656;9.810;2022-10-19T06:02:24;10.67;;;9.60;;
4272;SDS011;63887;53.656;9.810;2022-10-19T06:04:51;16.23;;;9.47;;
4272;SDS011;63887;53.656;9.810;2022-10-19T06:07:17;32.80;;;17.30;;
4272;SDS011;63887;53.656;9.810;2022-10-19T06:09:44;39.23;;;18.87;;
4272;SDS011;63887;53.656;9.810;2022-10-19T06:12:11;30.47;;;13.87;;
4272;SDS011;63887;53.656;9.810;2022-10-19T06:14:38;17.57;;;10.07;;
4272;SDS011;63887;53.656;9.810;2022-10-19T06:17:04;10.00;;;9.00;;
4272;SDS011;63887;53.656;9.810;2022-10-19T06:19:32;17.67;;;10.13;;
4272;SDS011;63887;53.656;9.810;2022-10-19T06:21:58;13.00;;;10.43;;
4272;SDS011;63887;53.656;9.810;2022-10-19T06:24:25;15.33;;;12.20;;
4272;SDS011;63887;53.656;9.810;2022-10-19T06:26:51;19.93;;;14.10;;
4272;SDS011;63887;53.656;9.810;2022-10-19T06:29:18;18.30;;;10.80;;
4272;SDS011;63887;53.656;9.810;2022-10-19T06:31:44;16.07;;;12.37;;
4272;SDS011;63887;53.656;9.810;2022-10-19T06:34:11;17.03;;;11.43;;
4272;SDS011;63887;53.656;9.810;2022-10-19T06:36:38;31.23;;;15.60;;
4272;SDS011;63887;53.656;9.810;2022-10-19T06:39:05;22.00;;;10.60;;
4272;SDS011;63887;53.656;9.810;2022-10-19T06:41:31;18.03;;;10.70;;
4272;SDS011;63887;53.656;9.810;2022-10-19T06:43:58;17.90;;;11.83;;
4272;SDS011;63887;53.656;9.810;2022-10-19T06:46:25;11.10;;;9.93;;
4272;SDS011;63887;53.656;9.810;2022-10-19T06:48:52;19.40;;;9.80;;
4272;SDS011;63887;53.656;9.810;2022-10-19T06:51:20;12.20;;;9.63;;
4272;SDS011;63887;53.656;9.810;2022-10-19T06:53:49;9.53;;;8.67;;
4272;SDS011;63887;53.656;9.810;2022-10-19T06:56:16;9.70;;;9.00;;
4272;SDS011;63887;53.656;9.810;2022-10-19T06:58:43;16.33;;;9.57;;
4272;SDS011;63887;53.656;9.810;2022-10-19T07:01:10;23.83;;;9.97;;
4272;SDS011;63887;53.656;9.810;2022-10-19T07:03:37;12.87;;;9.47;;
4272;SDS011;63887;53.656;9.810;2022-10-19T07:06:05;14.87;;;9.43;;
4272;SDS011;63887;53.656;9.810;2022-10-19T07:08:34;18.43;;;9.53;;
4272;SDS011;63887;53.656;9.810;2022-10-19T07:11:03;13.10;;;10.27;;
4272;SDS011;63887;53.656;9.810;2022-10-19T07:13:32;16.13;;;10.73;;
4272;SDS011;63887;53.656;9.810;2022-10-19T07:15:59;25.53;;;9.17;;
4272;SDS011;63887;53.656;9.810;2022-10-19T07:18:29;11.70;;;10.63;;
4272;SDS011;63887;53.656;9.810;2022-10-19T07:20:56;18.57;;;9.80;;
4272;SDS011;63887;53.656;9.810;2022-10-19T07:23:24;16.60;;;10.40;;
4272;SDS011;63887;53.656;9.810;2022-10-19T07:25:51;11.90;;;9.87;;
4272;SDS011;63887;53.656;9.810;2022-10-19T07:28:20;17.53;;;9.40;;
4272;SDS011;63887;53.656;9.810;2022-10-19T07:30:47;11.77;;;9.23;;
4272;SDS011;63887;53.656;9.810;2022-10-19T07:33:13;9.23;;;8.60;;
4272;SDS011;63887;53.656;9.810;2022-10-19T07:35:39;44.60;;;9.50;;
4272;SDS011;63887;53.656;9.810;2022-10-19T07:38:06;9.00;;;8.20;;
4272;SDS011;63887;53.656;9.810;2022-10-19T07:40:32;11.47;;;8.80;;
4272;SDS011;63887;53.656;9.810;2022-10-19T07:42:59;16.70;;;9.20;;
4272;SDS011;63887;53.656;9.810;2022-10-19T07:45:27;10.87;;;9.87;;
4272;SDS011;63887;53.656;9.810;2022-10-19T07:47:54;13.80;;;9.00;;
4272;SDS011;63887;53.656;9.810;2022-10-19T07:50:21;13.30;;;9.60;;
4272;SDS011;63887;53.656;9.810;2022-10-19T07:52:50;18.50;;;11.93;;
4272;SDS011;63887;53.656;9.810;2022-10-19T07:55:16;20.80;;;9.60;;
4272;SDS011;63887;53.656;9.810;2022-10-19T07:57:45;13.67;;;9.93;;
4272;SDS011;63887;53.656;9.810;2022-10-19T08:00:12;9.90;;;9.10;;
4272;SDS011;63887;53.656;9.810;2022-10-19T08:02:40;12.97;;;11.23;;
4272;SDS011;63887;53.656;9.810;2022-10-19T08:05:07;19.60;;;9.50;;
4272;SDS011;63887;53.656;9.810;2022-10-19T08:07:33;18.83;;;10.10;;
4272;SDS011;63887;53.656;9.810;2022-10-19T08:10:00;12.50;;;9.30;;
4272;SDS011;63887;53.656;9.810;2022-10-19T08:12:26;10.33;;;8.83;;
4272;SDS011;63887;53.656;9.810;2022-10-19T08:14:53;10.23;;;9.33;;
4272;SDS011;63887;53.656;9.810;2022-10-19T08:17:19;46.17;;;11.20;;
4272;SDS011;63887;53.656;9.810;2022-10-19T08:19:47;25.93;;;14.33;;
4272;SDS011;63887;53.656;9.810;2022-10-19T08:22:13;39.70;;;18.13;;
4272;SDS011;63887;53.656;9.810;2022-10-19T08:24:40;24.40;;;15.00;;
4272;SDS011;63887;53.656;9.810;2022-10-19T08:27:06;13.63;;;9.87;;
4272;SDS011;63887;53.656;9.810;2022-10-19T08:29:33;13.00;;;10.10;;
4272;SDS011;63887;53.656;9.810;2022-10-19T08:31:59;12.03;;;8.83;;
4272;SDS011;63887;53.656;9.810;2022-10-19T08:34:26;10.63;;;8.23;;
4272;SDS011;63887;53.656;9.810;2022-10-19T08:36:53;20.50;;;9.83;;
4272;SDS011;63887;53.656;9.810;2022-10-19T08:39:20;11.30;;;10.00;;
4272;SDS011;63887;53.656;9.810;2022-10-19T08:41:52;15.03;;;9.73;;
4272;SDS011;63887;53.656;9.810;2022-10-19T08:44:44;13.93;;;8.20;;
4272;SDS011;63887;53.656;9.810;2022-10-19T08:47:32;10.47;;;8.47;;
4272;SDS011;63887;53.656;9.810;2022-10-19T08:50:13;10.60;;;9.67;;
4272;SDS011;63887;53.656;9.810;2022-10-19T08:52:44;16.90;;;10.47;;
4272;SDS011;63887;53.656;9.810;2022-10-19T08:55:15;18.70;;;11.80;;
4272;SDS011;63887;53.656;9.810;2022-10-19T08:57:47;10.57;;;9.60;;
4272;SDS011;63887;53.656;9.810;2022-10-19T09:00:21;12.40;;;8.67;;
4272;SDS011;63887;53.656;9.810;2022-10-19T09:02:56;13.63;;;9.80;;
4272;SDS011;63887;53.656;9.810;2022-10-19T09:05:34;19.23;;;9.40;;
4272;SDS011;63887;53.656;9.810;2022-10-19T09:08:11;14.40;;;9.50;;
4272;SDS011;63887;53.656;9.810;2022-10-19T09:10:39;9.30;;;8.70;;
4272;SDS011;63887;53.656;9.810;2022-10-19T09:13:09;15.10;;;9.07;;
4272;SDS011;63887;53.656;9.810;2022-10-19T09:15:43;14.87;;;9.40;;
4272;SDS011;63887;53.656;9.810;2022-10-19T09:18:12;10.23;;;9.10;;
4272;SDS011;63887;53.656;9.810;2022-10-19T09:20:44;15.77;;;10.10;;
4272;SDS011;63887;53.656;9.810;2022-10-19T09:23:18;10.47;;;9.07;;
4272;SDS011;63887;53.656;9.810;2022-10-19T09:25:47;13.33;;;9.53;;
4272;SDS011;63887;53.656;9.810;2022-10-19T09:28:18;14.70;;;10.33;;
4272;SDS011;63887;53.656;9.810;2022-10-19T09:30:53;15.27;;;10.53;;
4272;SDS011;63887;53.656;9.810;2022-10-19T09:33:22;11.23;;;9.70;;
4272;SDS011;63887;53.656;9.810;2022-10-19T09:35:53;10.30;;;9.17;;
4272;SDS011;63887;53.656;9.810;2022-10-19T09:38:24;11.73;;;10.07;;
4272;SDS011;63887;53.656;9.810;2022-10-19T09:40:54;18.10;;;10.50;;
4272;SDS011;63887;53.656;9.810;2022-10-19T09:43:21;13.00;;;9.73;;
4272;SDS011;63887;53.656;9.810;2022-10-19T09:45:49;10.43;;;9.40;;
4272;SDS011;63887;53.656;9.810;2022-10-19T09:48:22;10.33;;;9.30;;
4272;SDS011;63887;53.656;9.810;2022-10-19T09:50:55;26.23;;;15.37;;
4272;SDS011;63887;53.656;9.810;2022-10-19T09:53:25;15.80;;;11.40;;
4272;SDS011;63887;53.656;9.810;2022-10-19T09:55:56;15.83;;;8.47;;
4272;SDS011;63887;53.656;9.810;2022-10-19T09:58:24;10.63;;;9.10;;
4272;SDS011;63887;53.656;9.810;2022-10-19T10:00:53;9.17;;;8.60;;
4272;SDS011;63887;53.656;9.810;2022-10-19T10:03:21;10.43;;;9.50;;
4272;SDS011;63887;53.656;9.810;2022-10-19T10:05:49;10.87;;;10.07;;
4272;SDS011;63887;53.656;9.810;2022-10-19T10:08:17;11.97;;;10.20;;
4272;SDS011;63887;53.656;9.810;2022-10-19T10:10:47;13.23;;;9.67;;
4272;SDS011;63887;53.656;9.810;2022-10-19T10:13:22;15.43;;;9.60;;
4272;SDS011;63887;53.656;9.810;2022-10-19T10:15:53;19.33;;;10.17;;
4272;SDS011;63887;53.656;9.810;2022-10-19T10:18:22;17.50;;;9.27;;
4272;SDS011;63887;53.656;9.810;2022-10-19T10:20:57;10.57;;;9.63;;
4272;SDS011;63887;53.656;9.810;2022-10-19T10:23:26;27.17;;;18.70;;
4272;SDS011;63887;53.656;9.810;2022-10-19T10:25:57;16.37;;;13.20;;
4272;SDS011;63887;53.656;9.810;2022-10-19T10:28:25;11.07;;;10.37;;
4272;SDS011;63887;53.656;9.810;2022-10-19T10:30:53;9.07;;;8.47;;
4272;SDS011;63887;53.656;9.810;2022-10-19T10:33:25;13.07;;;9.10;;
4272;SDS011;63887;53.656;9.810;2022-10-19T10:35:53;15.00;;;9.03;;
4272;SDS011;63887;53.656;9.810;2022-10-19T10:38:26;10.50;;;9.83;;
4272;SDS011;63887;53.656;9.810;2022-10-19T10:40:59;9.13;;;8.57;;
4272;SDS011;63887;53.656;9.810;2022-10-19T10:43:29;9.40;;;8.70;;
4272;SDS011;63887;53.656;9.810;2022-10-19T10:45:59;10.50;;;9.20;;
4272;SDS011;63887;53.656;9.810;2022-10-19T10:48:29;14.17;;;10.50;;
4272;SDS011;63887;53.656;9.810;2022-10-19T10:50:59;10.20;;;9.20;;
4272;SDS011;63887;53.656;9.810;2022-10-19T10:53:30;8.90;;;8.50;;
4272;SDS011;63887;53.656;9.810;2022-10-19T10:55:59;9.80;;;8.37;;
4272;SDS011;63887;53.656;9.810;2022-10-19T10:58:31;13.03;;;8.00;;
4272;SDS011;63887;53.656;9.810;2022-10-19T11:01:02;12.60;;;9.23;;
4272;SDS011;63887;53.656;9.810;2022-10-19T11:03:33;12.03;;;10.67;;
4272;SDS011;63887;53.656;9.810;2022-10-19T11:06:06;17.97;;;8.60;;
4272;SDS011;63887;53.656;9.810;2022-10-19T11:08:38;14.23;;;8.37;;
4272;SDS011;63887;53.656;9.810;2022-10-19T11:11:16;9.60;;;8.30;;
4272;SDS011;63887;53.656;9.810;2022-10-19T11:13:48;8.87;;;7.90;;
4272;SDS011;63887;53.656;9.810;2022-10-19T11:16:18;11.60;;;8.63;;
4272;SDS011;63887;53.656;9.810;2022-10-19T11:18:49;10.37;;;8.10;;
4272;SDS011;63887;53.656;9.810;2022-10-19T11:21:19;10.67;;;8.00;;
4272;SDS011;63887;53.656;9.810;2022-10-19T11:23:54;17.17;;;9.40;;
4272;SDS011;63887;53.656;9.810;2022-10-19T11:26:37;9.20;;;7.93;;
4272;SDS011;63887;53.656;9.810;2022-10-19T11:29:16;8.43;;;7.90;;
4272;SDS011;63887;53.656;9.810;2022-10-19T11:31:55;9.67;;;8.77;;
4272;SDS011;63887;53.656;9.810;2022-10-19T11:34:30;12.07;;;9.30;;
4272;SDS011;63887;53.656;9.810;2022-10-19T11:37:11;9.70;;;8.90;;
4272;SDS011;63887;53.656;9.810;2022-10-19T11:39:46;15.80;;;10.10;;
4272;SDS011;63887;53.656;9.810;2022-10-19T11:42:27;16.47;;;14.53;;
4272;SDS011;63887;53.656;9.810;2022-10-19T11:45:09;10.77;;;9.90;;
4272;SDS011;63887;53.656;9.810;2022-10-19T11:47:44;10.00;;;9.10;;
4272;SDS011;63887;53.656;9.810;2022-10-19T11:50:28;9.43;;;8.50;;
4272;SDS011;63887;53.656;9.810;2022-10-19T11:53:03;9.93;;;8.90;;
4272;SDS011;63887;53.656;9.810;2022-10-19T11:55:42;10.70;;;9.60;;
4272;SDS011;63887;53.656;9.810;2022-10-19T11:58:23;9.90;;;9.30;;
4272;SDS011;63887;53.656;9.810;2022-10-19T12:00:59;8.73;;;8.40;;
4272;SDS011;63887;53.656;9.810;2022-10-19T12:06:39;8.73;;;8.20;;
4272;SDS011;63887;53.656;9.810;2022-10-19T12:09:16;10.37;;;9.43;;
4272;SDS011;63887;53.656;9.810;2022-10-19T12:11:56;11.30;;;9.10;;
4272;SDS011;63887;53.656;9.810;2022-10-19T12:14:35;9.20;;;8.50;;
4272;SDS011;63887;53.656;9.810;2022-10-19T12:17:06;9.90;;;8.80;;
4272;SDS011;63887;53.656;9.810;2022-10-19T12:19:36;17.87;;;9.63;;
4272;SDS011;63887;53.656;9.810;2022-10-19T12:22:06;10.37;;;9.33;;
4272;SDS011;63887;53.656;9.810;2022-10-19T12:24:40;9.53;;;8.93;;
4272;SDS011;63887;53.656;9.810;2022-10-19T12:27:08;9.67;;;8.73;;
4272;SDS011;63887;53.656;9.810;2022-10-19T12:29:39;9.37;;;8.10;;
4272;SDS011;63887;53.656;9.810;2022-10-19T12:32:09;9.60;;;8.83;;
4272;SDS011;63887;53.656;9.810;2022-10-19T12:34:40;9.47;;;8.80;;
4272;SDS011;63887;53.656;9.810;2022-10-19T12:37:14;19.23;;;9.17;;
4272;SDS011;63887;53.656;9.810;2022-10-19T12:39:50;10.80;;;10.00;;
4272;SDS011;63887;53.656;9.810;2022-10-19T12:42:23;8.47;;;8.17;;
4272;SDS011;63887;53.656;9.810;2022-10-19T12:45:00;11.80;;;9.70;;
4272;SDS011;63887;53.656;9.810;2022-10-19T12:47:41;8.40;;;8.00;;
4272;SDS011;63887;53.656;9.810;2022-10-19T12:50:56;9.33;;;8.93;;
4272;SDS011;63887;53.656;9.810;2022-10-19T12:53:26;10.87;;;10.07;;
4272;SDS011;63887;53.656;9.810;2022-10-19T12:55:58;9.97;;;8.93;;
4272;SDS011;63887;53.656;9.810;2022-10-19T12:58:26;11.83;;;8.60;;
4272;SDS011;63887;53.656;9.810;2022-10-19T13:01:01;15.63;;;9.23;;
4272;SDS011;63887;53.656;9.810;2022-10-19T13:03:30;9.67;;;9.23;;
4272;SDS011;63887;53.656;9.810;2022-10-19T13:05:59;9.27;;;8.53;;
4272;SDS011;63887;53.656;9.810;2022-10-19T13:08:34;8.63;;;8.30;;
4272;SDS011;63887;53.656;9.810;2022-10-19T13:11:07;10.87;;;9.97;;
4272;SDS011;63887;53.656;9.810;2022-10-19T13:16:57;9.33;;;8.93;;
4272;SDS011;63887;53.656;9.810;2022-10-19T13:19:24;8.90;;;8.23;;
4272;SDS011;63887;53.656;9.810;2022-10-19T13:21:53;9.90;;;9.20;;
4272;SDS011;63887;53.656;9.810;2022-10-19T13:24:35;10.63;;;9.70;;
4272;SDS011;63887;53.656;9.810;2022-10-19T13:27:22;13.43;;;7.90;;
4272;SDS011;63887;53.656;9.810;2022-10-19T13:30:03;9.73;;;8.80;;
4272;SDS011;63887;53.656;9.810;2022-10-19T13:32:39;9.33;;;9.03;;
4272;SDS011;63887;53.656;9.810;2022-10-19T13:41:07;8.73;;;8.40;;
4272;SDS011;63887;53.656;9.810;2022-10-19T13:43:48;8.63;;;8.10;;
4272;SDS011;63887;53.656;9.810;2022-10-19T13:46:18;7.70;;;7.57;;
4272;SDS011;63887;53.656;9.810;2022-10-19T13:51:51;10.53;;;8.60;;
4272;SDS011;63887;53.656;9.810;2022-10-19T13:54:32;8.80;;;8.37;;
4272;SDS011;63887;53.656;9.810;2022-10-19T13:57:13;8.87;;;8.27;;
4272;SDS011;63887;53.656;9.810;2022-10-19T14:05:24;9.33;;;8.60;;
4272;SDS011;63887;53.656;9.810;2022-10-19T14:08:15;8.40;;;7.90;;
4272;SDS011;63887;53.656;9.810;2022-10-19T14:10:57;8.10;;;7.70;;
4272;SDS011;63887;53.656;9.810;2022-10-19T14:13:26;10.30;;;9.00;;
4272;SDS011;63887;53.656;9.810;2022-10-19T14:15:54;8.90;;;8.50;;
4272;SDS011;63887;53.656;9.810;2022-10-19T14:18:22;9.80;;;9.30;;
4272;SDS011;63887;53.656;9.810;2022-10-19T14:20:54;8.83;;;8.27;;
4272;SDS011;63887;53.656;9.810;2022-10-19T14:23:24;8.63;;;8.13;;
4272;SDS011;63887;53.656;9.810;2022-10-19T14:25:52;8.83;;;8.50;;
4272;SDS011;63887;53.656;9.810;2022-10-19T14:28:20;8.73;;;8.40;;
4272;SDS011;63887;53.656;9.810;2022-10-19T14:30:53;9.00;;;8.07;;
4272;SDS011;63887;53.656;9.810;2022-10-19T14:33:20;8.10;;;8.00;;
4272;SDS011;63887;53.656;9.810;2022-10-19T14:35:49;9.20;;;8.50;;
4272;SDS011;63887;53.656;9.810;2022-10-19T14:38:17;7.20;;;7.00;;
4272;SDS011;63887;53.656;9.810;2022-10-19T14:40:46;9.03;;;8.47;;
4272;SDS011;63887;53.656;9.810;2022-10-19T14:43:18;8.60;;;7.97;;
4272;SDS011;63887;53.656;9.810;2022-10-19T14:48:35;9.30;;;8.70;;
4272;SDS011;63887;53.656;9.810;2022-10-19T14:51:03;22.03;;;8.50;;
4272;SDS011;63887;53.656;9.810;2022-10-19T14:53:35;7.73;;;7.10;;
4272;SDS011;63887;53.656;9.810;2022-10-19T14:56:07;8.40;;;7.70;;
4272;SDS011;63887;53.656;9.810;2022-10-19T14:58:38;8.20;;;7.70;;
4272;SDS011;63887;53.656;9.810;2022-10-19T15:01:09;10.50;;;8.40;;
4272;SDS011;63887;53.656;9.810;2022-10-19T15:03:39;8.60;;;8.30;;
4272;SDS011;63887;53.656;9.810;2022-10-19T15:06:12;8.87;;;8.53;;
4272;SDS011;63887;53.656;9.810;2022-10-19T15:08:44;8.70;;;8.30;;
4272;SDS011;63887;53.656;9.810;2022-10-19T15:11:20;8.80;;;8.50;;
4272;SDS011;63887;53.656;9.810;2022-10-19T15:13:53;7.77;;;7.57;;
4272;SDS011;63887;53.656;9.810;2022-10-19T15:16:27;8.80;;;8.23;;
4272;SDS011;63887;53.656;9.810;2022-10-19T15:18:55;8.47;;;8.07;;
4272;SDS011;63887;53.656;9.810;2022-10-19T15:21:27;8.27;;;8.07;;
4272;SDS011;63887;53.656;9.810;2022-10-19T15:23:53;7.90;;;7.60;;
4272;SDS011;63887;53.656;9.810;2022-10-19T15:26:31;8.00;;;7.80;;
4272;SDS011;63887;53.656;9.810;2022-10-19T15:29:05;9.27;;;8.57;;
4272;SDS011;63887;53.656;9.810;2022-10-19T15:31:33;8.50;;;8.00;;
4272;SDS011;63887;53.656;9.810;2022-10-19T15:34:00;8.10;;;8.00;;